sensor_id;sensor_type;location;lat;lon;timestamp;pressure;altitude;pressure_sealevel;temperature;humidity
35878;BME280;21982;49.804;24.072;2024-01-30T00:01:42;99257.53;;;-0.20;73.69
35878;BME280;21982;49.804;24.072;2024-01-30T00:04:07;99263.44;;;-0.16;73.23
35878;BME280;21982;49.804;24.072;2024-01-30T00:06:33;99122.94;;;-1.07;73.65
35878;BME280;21982;49.804;24.072;2024-01-30T00:08:58;99027.28;;;-1.55;73.55
35878;BME280;21982;49.804;24.072;2024-01-30T00:11:23;99253.25;;;-0.21;73.55
35878;BME280;21982;49.804;24.072;2024-01-30T00:13:53;99058.88;;;-1.46;73.27
35878;BME280;21982;49.804;24.072;2024-01-30T00:16:22;99258.94;;;-0.13;73.35
35878;BME280;21982;49.804;24.072;2024-01-30T00:18:52;99185.97;;;-0.66;73.93
35878;BME280;21982;49.804;24.072;2024-01-30T00:21:18;99218.53;;;-0.57;73.89
35878;BME280;21982;49.804;24.072;2024-01-30T00:23:43;98829.06;;;-3.06;73.57
35878;BME280;21982;49.804;24.072;2024-01-30T00:26:09;99256.81;;;-0.23;73.98
35878;BME280;21982;49.804;24.072;2024-01-30T00:28:34;99232.38;;;-0.38;73.44
35878;BME280;21982;49.804;24.072;2024-01-30T00:31:00;99227.19;;;-0.38;73.91
35878;BME280;21982;49.804;24.072;2024-01-30T00:33:25;99262.72;;;-0.20;73.82
35878;BME280;21982;49.804;24.072;2024-01-30T00:35:50;99222.97;;;-0.41;73.67
35878;BME280;21982;49.804;24.072;2024-01-30T00:38:16;99142.00;;;-0.89;73.69
35878;BME280;21982;49.804;24.072;2024-01-30T00:40:41;99258.50;;;-0.22;73.75
35878;BME280;21982;49.804;24.072;2024-01-30T00:43:07;99244.66;;;-0.23;73.56
35878;BME280;21982;49.804;24.072;2024-01-30T00:45:32;99253.44;;;-0.25;73.72
35878;BME280;21982;49.804;24.072;2024-01-30T00:47:57;99255.44;;;-0.30;73.58
35878;BME280;21982;49.804;24.072;2024-01-30T00:50:23;99249.69;;;-0.37;74.14
35878;BME280;21982;49.804;24.072;2024-01-30T00:52:48;99097.06;;;-1.29;73.75
35878;BME280;21982;49.804;24.072;2024-01-30T00:55:14;99248.16;;;-0.41;73.91
35878;BME280;21982;49.804;24.072;2024-01-30T00:57:39;99202.28;;;-0.62;74.26
35878;BME280;21982;49.804;24.072;2024-01-30T01:00:06;99184.72;;;-0.57;74.06
35878;BME280;21982;49.804;24.072;2024-01-30T01:02:36;99172.63;;;-0.58;73.86
35878;BME280;21982;49.804;24.072;2024-01-30T01:05:03;99229.09;;;-0.24;73.89
35878;BME280;21982;49.804;24.072;2024-01-30T01:07:28;99032.03;;;-1.65;73.65
35878;BME280;21982;49.804;24.072;2024-01-30T01:09:53;99214.75;;;-0.50;74.06
35878;BME280;21982;49.804;24.072;2024-01-30T01:12:19;99235.59;;;-0.33;74.04
35878;BME280;21982;49.804;24.072;2024-01-30T01:14:44;98785.31;;;-3.12;73.79
35878;BME280;21982;49.804;24.072;2024-01-30T01:17:10;98974.63;;;-1.96;74.28
35878;BME280;21982;49.804;24.072;2024-01-30T01:19:35;99226.19;;;-0.36;74.37
35878;BME280;21982;49.804;24.072;2024-01-30T01:22:00;99234.22;;;-0.40;74.28
35878;BME280;21982;49.804;24.072;2024-01-30T01:24:26;99039.06;;;-1.67;73.92
35878;BME280;21982;49.804;24.072;2024-01-30T01:26:51;99252.50;;;-0.42;74.23
35878;BME280;21982;49.804;24.072;2024-01-30T01:29:17;99037.03;;;-1.79;74.28
35878;BME280;21982;49.804;24.072;2024-01-30T01:31:42;99231.28;;;-0.34;74.34
35878;BME280;21982;49.804;24.072;2024-01-30T01:34:11;99235.31;;;-0.27;74.42
35878;BME280;21982;49.804;24.072;2024-01-30T01:36:36;99127.94;;;-0.85;74.20
35878;BME280;21982;49.804;24.072;2024-01-30T01:39:01;99227.28;;;-0.22;73.90
35878;BME280;21982;49.804;24.072;2024-01-30T01:41:31;99232.34;;;-0.19;73.92
35878;BME280;21982;49.804;24.072;2024-01-30T01:43:57;99220.66;;;-0.29;74.14
35878;BME280;21982;49.804;24.072;2024-01-30T01:46:22;99192.00;;;-0.47;73.92
35878;BME280;21982;49.804;24.072;2024-01-30T01:48:48;99197.28;;;-0.48;74.10
35878;BME280;21982;49.804;24.072;2024-01-30T01:51:14;99222.28;;;-0.27;74.41
35878;BME280;21982;49.804;24.072;2024-01-30T01:53:41;99145.28;;;-0.67;74.44
35878;BME280;21982;49.804;24.072;2024-01-30T01:56:06;99135.41;;;-0.78;74.20
35878;BME280;21982;49.804;24.072;2024-01-30T01:58:32;99155.91;;;-0.72;74.25
35878;BME280;21982;49.804;24.072;2024-01-30T02:00:58;99177.03;;;-0.60;74.24
35878;BME280;21982;49.804;24.072;2024-01-30T02:03:24;99063.84;;;-1.60;74.25
35878;BME280;21982;49.804;24.072;2024-01-30T02:05:53;99132.03;;;-0.80;74.51
35878;BME280;21982;49.804;24.072;2024-01-30T02:08:20;99146.84;;;-0.82;74.43
35878;BME280;21982;49.804;24.072;2024-01-30T02:10:45;99162.56;;;-0.66;74.74
35878;BME280;21982;49.804;24.072;2024-01-30T02:13:11;99106.88;;;-0.98;74.22
35878;BME280;21982;49.804;24.072;2024-01-30T02:15:36;99162.91;;;-0.55;74.46
35878;BME280;21982;49.804;24.072;2024-01-30T02:18:01;99213.56;;;-0.26;74.60
35878;BME280;21982;49.804;24.072;2024-01-30T02:20:29;99187.25;;;-0.56;74.29
35878;BME280;21982;49.804;24.072;2024-01-30T02:22:56;99151.16;;;-0.63;74.48
35878;BME280;21982;49.804;24.072;2024-01-30T02:25:33;99008.47;;;-1.79;73.97
35878;BME280;21982;49.804;24.072;2024-01-30T02:27:59;99178.09;;;-0.64;74.18
35878;BME280;21982;49.804;24.072;2024-01-30T02:30:24;99199.91;;;-0.48;74.67
35878;BME280;21982;49.804;24.072;2024-01-30T02:32:49;99203.47;;;-0.51;74.53
35878;BME280;21982;49.804;24.072;2024-01-30T02:35:15;99194.97;;;-0.54;74.51
35878;BME280;21982;49.804;24.072;2024-01-30T02:37:40;99195.97;;;-0.57;74.40
35878;BME280;21982;49.804;24.072;2024-01-30T02:40:06;99204.69;;;-0.58;74.45
35878;BME280;21982;49.804;24.072;2024-01-30T02:42:32;99073.88;;;-1.33;74.44
35878;BME280;21982;49.804;24.072;2024-01-30T02:44:57;99040.19;;;-1.54;74.47
35878;BME280;21982;49.804;24.072;2024-01-30T02:47:23;99198.41;;;-0.54;74.67
35878;BME280;21982;49.804;24.072;2024-01-30T02:49:48;99196.03;;;-0.58;74.46
35878;BME280;21982;49.804;24.072;2024-01-30T02:52:13;99033.31;;;-1.74;74.83
35878;BME280;21982;49.804;24.072;2024-01-30T02:54:39;99187.13;;;-0.72;74.37
35878;BME280;21982;49.804;24.072;2024-01-30T02:57:04;99197.38;;;-0.69;74.60
35878;BME280;21982;49.804;24.072;2024-01-30T02:59:29;99071.41;;;-1.37;74.57
35878;BME280;21982;49.804;24.072;2024-01-30T03:01:55;99057.66;;;-1.76;74.27
35878;BME280;21982;49.804;24.072;2024-01-30T03:04:20;99191.50;;;-0.72;74.32
35878;BME280;21982;49.804;24.072;2024-01-30T03:06:46;99164.78;;;-1.13;74.72
35878;BME280;21982;49.804;24.072;2024-01-30T03:09:12;99188.53;;;-0.83;74.28
35878;BME280;21982;49.804;24.072;2024-01-30T03:11:37;99096.63;;;-1.39;74.33
35878;BME280;21982;49.804;24.072;2024-01-30T03:14:03;99197.19;;;-0.83;74.30
35878;BME280;21982;49.804;24.072;2024-01-30T03:16:29;99182.63;;;-0.87;74.68
35878;BME280;21982;49.804;24.072;2024-01-30T03:18:54;99083.41;;;-1.72;74.18
35878;BME280;21982;49.804;24.072;2024-01-30T03:21:21;99135.78;;;-1.23;74.13
35878;BME280;21982;49.804;24.072;2024-01-30T03:23:47;99197.53;;;-0.90;74.71
35878;BME280;21982;49.804;24.072;2024-01-30T03:26:12;99187.84;;;-0.87;74.42
35878;BME280;21982;49.804;24.072;2024-01-30T03:28:38;99134.44;;;-1.13;74.54
35878;BME280;21982;49.804;24.072;2024-01-30T03:31:03;99061.31;;;-1.61;74.53
35878;BME280;21982;49.804;24.072;2024-01-30T03:33:29;99177.22;;;-0.82;74.84
35878;BME280;21982;49.804;24.072;2024-01-30T03:35:54;99072.91;;;-1.50;74.37
35878;BME280;21982;49.804;24.072;2024-01-30T03:38:19;98961.72;;;-2.17;74.23
35878;BME280;21982;49.804;24.072;2024-01-30T03:40:45;99036.53;;;-2.08;74.02
35878;BME280;21982;49.804;24.072;2024-01-30T03:43:10;99184.47;;;-0.89;74.48
35878;BME280;21982;49.804;24.072;2024-01-30T03:45:36;98972.09;;;-2.17;74.62
35878;BME280;21982;49.804;24.072;2024-01-30T03:48:01;99034.84;;;-1.88;74.67
35878;BME280;21982;49.804;24.072;2024-01-30T03:50:27;99177.06;;;-0.98;74.25
35878;BME280;21982;49.804;24.072;2024-01-30T03:52:53;99155.88;;;-1.08;74.39
35878;BME280;21982;49.804;24.072;2024-01-30T03:55:18;99194.22;;;-0.94;74.62
35878;BME280;21982;49.804;24.072;2024-01-30T03:57:43;99201.25;;;-0.96;74.47
35878;BME280;21982;49.804;24.072;2024-01-30T04:00:09;99171.66;;;-0.93;74.74
35878;BME280;21982;49.804;24.072;2024-01-30T04:02:35;99135.84;;;-1.24;74.59
35878;BME280;21982;49.804;24.072;2024-01-30T04:05:00;99187.53;;;-0.99;74.49
35878;BME280;21982;49.804;24.072;2024-01-30T04:07:25;98993.50;;;-2.12;74.56
35878;BME280;21982;49.804;24.072;2024-01-30T04:09:51;99172.25;;;-1.06;74.67
35878;BME280;21982;49.804;24.072;2024-01-30T04:12:16;99060.25;;;-1.76;74.51
35878;BME280;21982;49.804;24.072;2024-01-30T04:14:41;98972.88;;;-2.35;74.23
35878;BME280;21982;49.804;24.072;2024-01-30T04:17:07;99164.16;;;-1.18;74.70
35878;BME280;21982;49.804;24.072;2024-01-30T04:19:33;99169.00;;;-1.11;74.52
35878;BME280;21982;49.804;24.072;2024-01-30T04:22:02;99177.53;;;-1.07;74.66
35878;BME280;21982;49.804;24.072;2024-01-30T04:24:27;99197.16;;;-1.02;74.78
35878;BME280;21982;49.804;24.072;2024-01-30T04:26:53;99127.13;;;-1.23;74.53
35878;BME280;21982;49.804;24.072;2024-01-30T04:29:18;99096.22;;;-1.48;74.35
35878;BME280;21982;49.804;24.072;2024-01-30T04:31:44;99152.13;;;-1.21;74.79
35878;BME280;21982;49.804;24.072;2024-01-30T04:34:09;99177.53;;;-1.07;74.74
35878;BME280;21982;49.804;24.072;2024-01-30T04:36:35;99192.22;;;-1.06;74.67
35878;BME280;21982;49.804;24.072;2024-01-30T04:39:00;99174.91;;;-1.07;74.46
35878;BME280;21982;49.804;24.072;2024-01-30T04:41:26;99112.53;;;-1.45;74.61
35878;BME280;21982;49.804;24.072;2024-01-30T04:43:53;99172.31;;;-1.07;74.67
35878;BME280;21982;49.804;24.072;2024-01-30T04:46:19;99167.19;;;-1.09;74.53
35878;BME280;21982;49.804;24.072;2024-01-30T04:48:44;99169.16;;;-1.14;74.42
35878;BME280;21982;49.804;24.072;2024-01-30T04:51:11;99170.00;;;-1.13;74.74
35878;BME280;21982;49.804;24.072;2024-01-30T04:53:36;99164.94;;;-1.16;74.55
35878;BME280;21982;49.804;24.072;2024-01-30T04:56:02;99161.56;;;-1.18;74.61
35878;BME280;21982;49.804;24.072;2024-01-30T04:58:27;99140.72;;;-1.37;74.62
35878;BME280;21982;49.804;24.072;2024-01-30T05:00:52;99179.88;;;-1.21;74.46
35878;BME280;21982;49.804;24.072;2024-01-30T05:03:19;98969.72;;;-2.42;74.57
35878;BME280;21982;49.804;24.072;2024-01-30T05:05:44;99166.31;;;-1.28;74.65
35878;BME280;21982;49.804;24.072;2024-01-30T05:08:09;99163.84;;;-1.31;74.48
35878;BME280;21982;49.804;24.072;2024-01-30T05:10:35;99172.63;;;-1.33;74.67
35878;BME280;21982;49.804;24.072;2024-01-30T05:13:00;98929.75;;;-3.17;74.60
35878;BME280;21982;49.804;24.072;2024-01-30T05:15:26;99166.19;;;-1.64;74.53
35878;BME280;21982;49.804;24.072;2024-01-30T05:17:51;98941.16;;;-2.81;74.48
35878;BME280;21982;49.804;24.072;2024-01-30T05:20:17;99124.53;;;-1.81;74.37
35878;BME280;21982;49.804;24.072;2024-01-30T05:22:43;99182.81;;;-1.48;74.48
35878;BME280;21982;49.804;24.072;2024-01-30T05:25:10;99176.06;;;-1.52;74.87
35878;BME280;21982;49.804;24.072;2024-01-30T05:27:36;99079.97;;;-2.11;74.78
35878;BME280;21982;49.804;24.072;2024-01-30T05:30:02;99172.47;;;-1.49;74.87
35878;BME280;21982;49.804;24.072;2024-01-30T05:32:27;99000.94;;;-2.43;74.72
35878;BME280;21982;49.804;24.072;2024-01-30T05:34:53;99165.13;;;-1.40;74.72
35878;BME280;21982;49.804;24.072;2024-01-30T05:37:18;99155.91;;;-1.47;75.00
35878;BME280;21982;49.804;24.072;2024-01-30T05:39:44;99010.16;;;-2.38;74.49
35878;BME280;21982;49.804;24.072;2024-01-30T05:42:09;99107.13;;;-1.79;74.37
35878;BME280;21982;49.804;24.072;2024-01-30T05:44:35;99125.78;;;-1.71;74.65
35878;BME280;21982;49.804;24.072;2024-01-30T05:47:00;99108.81;;;-1.78;74.71
35878;BME280;21982;49.804;24.072;2024-01-30T05:49:25;99162.66;;;-1.43;74.87
35878;BME280;21982;49.804;24.072;2024-01-30T05:51:51;99134.88;;;-1.61;74.77
35878;BME280;21982;49.804;24.072;2024-01-30T05:54:16;99165.31;;;-1.44;74.85
35878;BME280;21982;49.804;24.072;2024-01-30T05:56:42;99141.00;;;-1.62;74.62
35878;BME280;21982;49.804;24.072;2024-01-30T05:59:07;98915.22;;;-3.01;74.53
35878;BME280;21982;49.804;24.072;2024-01-30T06:01:32;99065.94;;;-2.07;74.84
35878;BME280;21982;49.804;24.072;2024-01-30T06:03:58;99135.84;;;-1.63;74.84
35878;BME280;21982;49.804;24.072;2024-01-30T06:06:23;99186.66;;;-1.38;74.77
35878;BME280;21982;49.804;24.072;2024-01-30T06:08:49;99033.97;;;-2.28;74.48
35878;BME280;21982;49.804;24.072;2024-01-30T06:11:14;99096.50;;;-1.93;74.99
35878;BME280;21982;49.804;24.072;2024-01-30T06:13:39;99155.06;;;-1.47;74.67
35878;BME280;21982;49.804;24.072;2024-01-30T06:16:09;99140.59;;;-1.53;75.05
35878;BME280;21982;49.804;24.072;2024-01-30T06:18:35;99026.91;;;-2.24;74.62
35878;BME280;21982;49.804;24.072;2024-01-30T06:21:00;99207.97;;;-1.29;74.86
35878;BME280;21982;49.804;24.072;2024-01-30T06:23:25;98955.22;;;-2.66;74.66
35878;BME280;21982;49.804;24.072;2024-01-30T06:25:51;99184.44;;;-1.26;74.67
35878;BME280;21982;49.804;24.072;2024-01-30T06:28:16;99244.16;;;-1.25;74.69
35878;BME280;21982;49.804;24.072;2024-01-30T06:30:42;98722.53;;;-3.98;74.46
35878;BME280;21982;49.804;24.072;2024-01-30T06:33:08;99094.81;;;-1.74;74.43
35878;BME280;21982;49.804;24.072;2024-01-30T06:35:33;99203.41;;;-1.24;74.92
35878;BME280;21982;49.804;24.072;2024-01-30T06:38:01;99201.47;;;-1.19;74.89
35878;BME280;21982;49.804;24.072;2024-01-30T06:40:26;98841.81;;;-3.42;74.50
35878;BME280;21982;49.804;24.072;2024-01-30T06:42:52;99096.38;;;-1.72;74.29
35878;BME280;21982;49.804;24.072;2024-01-30T06:45:17;99194.94;;;-1.09;74.59
35878;BME280;21982;49.804;24.072;2024-01-30T06:47:42;99195.72;;;-1.07;74.35
35878;BME280;21982;49.804;24.072;2024-01-30T06:50:08;99191.34;;;-1.07;74.71
35878;BME280;21982;49.804;24.072;2024-01-30T06:52:33;98912.53;;;-2.78;74.48
35878;BME280;21982;49.804;24.072;2024-01-30T06:54:58;99150.78;;;-1.29;74.53
35878;BME280;21982;49.804;24.072;2024-01-30T06:57:24;99200.63;;;-1.01;74.57
35878;BME280;21982;49.804;24.072;2024-01-30T06:59:49;99026.81;;;-2.03;74.14
35878;BME280;21982;49.804;24.072;2024-01-30T07:02:14;99138.56;;;-1.27;74.52
35878;BME280;21982;49.804;24.072;2024-01-30T07:04:40;99184.34;;;-1.05;74.84
35878;BME280;21982;49.804;24.072;2024-01-30T07:07:09;99075.41;;;-1.67;74.51
35878;BME280;21982;49.804;24.072;2024-01-30T07:09:37;98928.88;;;-2.57;74.34
35878;BME280;21982;49.804;24.072;2024-01-30T07:12:04;99191.41;;;-0.89;74.49
35878;BME280;21982;49.804;24.072;2024-01-30T07:14:29;99132.25;;;-1.22;74.44
35878;BME280;21982;49.804;24.072;2024-01-30T07:16:54;99181.78;;;-0.87;74.47
35878;BME280;21982;49.804;24.072;2024-01-30T07:19:20;99175.88;;;-0.91;74.41
35878;BME280;21982;49.804;24.072;2024-01-30T07:21:45;99187.34;;;-0.76;74.54
35878;BME280;21982;49.804;24.072;2024-01-30T07:24:11;99189.66;;;-0.70;74.52
35878;BME280;21982;49.804;24.072;2024-01-30T07:26:37;99190.06;;;-0.60;74.19
35878;BME280;21982;49.804;24.072;2024-01-30T07:29:02;99109.53;;;-0.99;74.31
35878;BME280;21982;49.804;24.072;2024-01-30T07:31:28;99138.63;;;-0.73;74.49
35878;BME280;21982;49.804;24.072;2024-01-30T07:33:54;99182.03;;;-0.37;74.16
35878;BME280;21982;49.804;24.072;2024-01-30T07:36:20;99114.59;;;-0.78;74.28
35878;BME280;21982;49.804;24.072;2024-01-30T07:38:45;99117.28;;;-0.62;74.02
35878;BME280;21982;49.804;24.072;2024-01-30T07:41:11;99184.34;;;-0.14;74.33
35878;BME280;21982;49.804;24.072;2024-01-30T07:43:38;99174.25;;;-0.03;74.32
35878;BME280;21982;49.804;24.072;2024-01-30T07:46:04;99191.22;;;-0.13;73.94
35878;BME280;21982;49.804;24.072;2024-01-30T07:48:31;99074.50;;;-0.56;74.22
35878;BME280;21982;49.804;24.072;2024-01-30T07:51:00;99186.88;;;0.22;74.24
35878;BME280;21982;49.804;24.072;2024-01-30T07:53:25;99158.44;;;0.18;73.54
35878;BME280;21982;49.804;24.072;2024-01-30T07:55:52;99089.59;;;-0.46;73.91
35878;BME280;21982;49.804;24.072;2024-01-30T07:58:17;99146.78;;;0.25;73.68
35878;BME280;21982;49.804;24.072;2024-01-30T08:00:43;99067.69;;;-0.07;73.48
35878;BME280;21982;49.804;24.072;2024-01-30T08:03:08;99074.88;;;0.05;73.96
35878;BME280;21982;49.804;24.072;2024-01-30T08:05:33;99121.94;;;0.35;74.04
35878;BME280;21982;49.804;24.072;2024-01-30T08:07:59;99176.41;;;0.73;73.46
35878;BME280;21982;49.804;24.072;2024-01-30T08:10:24;99178.03;;;0.75;73.59
35878;BME280;21982;49.804;24.072;2024-01-30T08:12:50;99121.13;;;0.50;73.43
35878;BME280;21982;49.804;24.072;2024-01-30T08:15:15;99174.63;;;0.90;73.61
35878;BME280;21982;49.804;24.072;2024-01-30T08:17:41;99038.94;;;0.12;73.51
35878;BME280;21982;49.804;24.072;2024-01-30T08:20:06;99192.13;;;1.04;72.91
35878;BME280;21982;49.804;24.072;2024-01-30T08:22:33;99052.94;;;0.26;73.01
35878;BME280;21982;49.804;24.072;2024-01-30T08:24:59;99003.31;;;0.12;72.27
35878;BME280;21982;49.804;24.072;2024-01-30T08:27:24;99164.28;;;1.05;72.65
35878;BME280;21982;49.804;24.072;2024-01-30T08:29:49;98962.63;;;0.10;72.51
35878;BME280;21982;49.804;24.072;2024-01-30T08:32:15;99016.63;;;0.55;72.27
35878;BME280;21982;49.804;24.072;2024-01-30T08:34:41;99083.84;;;0.97;72.28
35878;BME280;21982;49.804;24.072;2024-01-30T08:37:06;99165.69;;;1.73;71.75
35878;BME280;21982;49.804;24.072;2024-01-30T08:39:32;99123.59;;;1.63;71.23
35878;BME280;21982;49.804;24.072;2024-01-30T08:41:57;99121.72;;;1.65;71.00
35878;BME280;21982;49.804;24.072;2024-01-30T08:44:23;99155.69;;;1.95;71.45
35878;BME280;21982;49.804;24.072;2024-01-30T08:46:48;99154.97;;;2.08;70.71
35878;BME280;21982;49.804;24.072;2024-01-30T08:49:16;99158.53;;;2.21;71.00
35878;BME280;21982;49.804;24.072;2024-01-30T08:51:42;99082.75;;;1.77;70.44
35878;BME280;21982;49.804;24.072;2024-01-30T08:54:07;99067.66;;;1.82;69.97
35878;BME280;21982;49.804;24.072;2024-01-30T08:56:32;99165.66;;;2.47;70.43
35878;BME280;21982;49.804;24.072;2024-01-30T08:58:58;99160.63;;;2.58;69.76
35878;BME280;21982;49.804;24.072;2024-01-30T09:01:23;99116.75;;;2.35;69.84
35878;BME280;21982;49.804;24.072;2024-01-30T09:03:49;98970.34;;;1.50;69.48
35878;BME280;21982;49.804;24.072;2024-01-30T09:06:15;99142.16;;;2.76;68.72
35878;BME280;21982;49.804;24.072;2024-01-30T09:08:40;98903.84;;;1.27;68.50
35878;BME280;21982;49.804;24.072;2024-01-30T09:11:13;98771.75;;;0.68;68.30
35878;BME280;21982;49.804;24.072;2024-01-30T09:13:39;99076.22;;;2.42;68.19
35878;BME280;21982;49.804;24.072;2024-01-30T09:16:05;99080.03;;;2.65;68.66
35878;BME280;21982;49.804;24.072;2024-01-30T09:18:30;99151.06;;;3.14;68.25
35878;BME280;21982;49.804;24.072;2024-01-30T09:20:56;98940.44;;;1.98;67.81
35878;BME280;21982;49.804;24.072;2024-01-30T09:23:21;99161.69;;;3.40;67.41
35878;BME280;21982;49.804;24.072;2024-01-30T09:31:38;99149.78;;;3.75;66.79
35878;BME280;21982;49.804;24.072;2024-01-30T09:34:04;99150.00;;;3.85;66.33
35878;BME280;21982;49.804;24.072;2024-01-30T09:36:29;98976.34;;;2.91;65.81
35878;BME280;21982;49.804;24.072;2024-01-30T09:38:54;99128.38;;;3.81;65.21
35878;BME280;21982;49.804;24.072;2024-01-30T09:41:23;99082.44;;;3.63;65.00
35878;BME280;21982;49.804;24.072;2024-01-30T09:43:50;99096.34;;;3.78;64.72
35878;BME280;21982;49.804;24.072;2024-01-30T09:46:16;99135.19;;;4.11;64.20
35878;BME280;21982;49.804;24.072;2024-01-30T09:48:44;98893.00;;;2.72;63.58
35878;BME280;21982;49.804;24.072;2024-01-30T09:51:11;99130.38;;;4.30;63.80
35878;BME280;21982;49.804;24.072;2024-01-30T09:53:38;99029.78;;;3.80;63.24
35878;BME280;21982;49.804;24.072;2024-01-30T09:56:05;99131.19;;;4.56;62.90
35878;BME280;21982;49.804;24.072;2024-01-30T09:58:30;99106.47;;;4.47;62.26
35878;BME280;21982;49.804;24.072;2024-01-30T10:00:56;99123.84;;;4.74;62.07
35878;BME280;21982;49.804;24.072;2024-01-30T10:03:21;99124.91;;;4.84;61.87
35878;BME280;21982;49.804;24.072;2024-01-30T10:05:53;99060.03;;;4.60;61.04
35878;BME280;21982;49.804;24.072;2024-01-30T10:08:18;99121.69;;;5.04;61.11
35878;BME280;21982;49.804;24.072;2024-01-30T10:10:47;99120.38;;;5.22;60.79
35878;BME280;21982;49.804;24.072;2024-01-30T10:13:13;99116.13;;;5.32;60.51
35878;BME280;21982;49.804;24.072;2024-01-30T10:15:39;99115.25;;;5.45;60.15
35878;BME280;21982;49.804;24.072;2024-01-30T10:18:05;99049.75;;;5.07;60.55
35878;BME280;21982;49.804;24.072;2024-01-30T10:20:32;98996.31;;;4.95;59.85
35878;BME280;21982;49.804;24.072;2024-01-30T10:23:01;98996.34;;;5.19;59.19
35878;BME280;21982;49.804;24.072;2024-01-30T10:25:26;98975.69;;;5.14;58.92
35878;BME280;21982;49.804;24.072;2024-01-30T10:27:53;99105.72;;;6.02;58.93
35878;BME280;21982;49.804;24.072;2024-01-30T10:30:20;98949.41;;;5.14;58.04
35878;BME280;21982;49.804;24.072;2024-01-30T10:32:46;98933.66;;;5.25;57.65
35878;BME280;21982;49.804;24.072;2024-01-30T10:35:11;99048.94;;;6.00;57.22
35878;BME280;21982;49.804;24.072;2024-01-30T10:37:36;99093.13;;;6.41;56.58
35878;BME280;21982;49.804;24.072;2024-01-30T10:40:03;99095.16;;;6.49;56.59
35878;BME280;21982;49.804;24.072;2024-01-30T10:42:31;99027.09;;;6.22;56.03
35878;BME280;21982;49.804;24.072;2024-01-30T10:45:07;99088.00;;;6.84;55.25
35878;BME280;21982;49.804;24.072;2024-01-30T10:47:43;99091.97;;;8.59;55.89
35878;BME280;21982;49.804;24.072;2024-01-30T10:50:09;99093.75;;;10.35;54.66
35878;BME280;21982;49.804;24.072;2024-01-30T10:52:36;99050.31;;;11.91;52.36
35878;BME280;21982;49.804;24.072;2024-01-30T10:55:04;99064.25;;;13.39;49.68
35878;BME280;21982;49.804;24.072;2024-01-30T10:57:34;98956.31;;;13.45;47.46
35878;BME280;21982;49.804;24.072;2024-01-30T11:00:04;99054.44;;;14.53;46.39
35878;BME280;21982;49.804;24.072;2024-01-30T11:02:39;99078.28;;;14.94;51.26
35878;BME280;21982;49.804;24.072;2024-01-30T11:05:05;99083.38;;;15.51;46.45
35878;BME280;21982;49.804;24.072;2024-01-30T11:07:30;99003.38;;;15.34;44.02
35878;BME280;21982;49.804;24.072;2024-01-30T11:12:28;99025.75;;;15.87;42.32
35878;BME280;21982;49.804;24.072;2024-01-30T11:15:16;99032.75;;;16.55;41.87
35878;BME280;21982;49.804;24.072;2024-01-30T11:20:21;99062.78;;;16.80;40.49
35878;BME280;21982;49.804;24.072;2024-01-30T11:39:05;98972.94;;;17.64;36.13
35878;BME280;21982;49.804;24.072;2024-01-30T11:41:31;98957.63;;;17.58;35.98
35878;BME280;21982;49.804;24.072;2024-01-30T11:43:56;98960.34;;;17.43;35.41
35878;BME280;21982;49.804;24.072;2024-01-30T11:46:24;99039.78;;;17.72;35.78
35878;BME280;21982;49.804;24.072;2024-01-30T11:48:50;98989.69;;;17.30;35.55
35878;BME280;21982;49.804;24.072;2024-01-30T11:51:16;98928.59;;;17.19;35.37
35878;BME280;21982;49.804;24.072;2024-01-30T11:53:44;99035.25;;;17.94;34.34
35878;BME280;21982;49.804;24.072;2024-01-30T11:56:12;99027.59;;;17.91;34.47
35878;BME280;21982;49.804;24.072;2024-01-30T11:58:37;99014.22;;;17.91;34.51
35878;BME280;21982;49.804;24.072;2024-01-30T12:01:03;99025.63;;;18.28;34.46
35878;BME280;21982;49.804;24.072;2024-01-30T12:03:28;99013.53;;;18.66;34.33
35878;BME280;21982;49.804;24.072;2024-01-30T12:05:56;98994.63;;;18.88;33.53
35878;BME280;21982;49.804;24.072;2024-01-30T12:08:22;98999.59;;;18.91;33.01
35878;BME280;21982;49.804;24.072;2024-01-30T12:10:57;99025.13;;;18.73;33.22
35878;BME280;21982;49.804;24.072;2024-01-30T12:13:32;99002.34;;;18.00;33.53
35878;BME280;21982;49.804;24.072;2024-01-30T12:15:57;99009.34;;;17.80;33.39
35878;BME280;21982;49.804;24.072;2024-01-30T12:18:23;98898.25;;;16.91;34.10
35878;BME280;21982;49.804;24.072;2024-01-30T12:20:58;98969.41;;;17.85;33.76
35878;BME280;21982;49.804;24.072;2024-01-30T12:23:24;99014.13;;;18.34;33.15
35878;BME280;21982;49.804;24.072;2024-01-30T12:25:54;98891.75;;;17.42;32.80
35878;BME280;21982;49.804;24.072;2024-01-30T12:28:20;98966.75;;;17.85;33.15
35878;BME280;21982;49.804;24.072;2024-01-30T12:30:46;99009.16;;;18.31;33.17
35878;BME280;21982;49.804;24.072;2024-01-30T12:33:17;99007.19;;;18.46;32.95
35878;BME280;21982;49.804;24.072;2024-01-30T12:35:47;98962.44;;;18.19;32.69
35878;BME280;21982;49.804;24.072;2024-01-30T12:38:15;98984.78;;;18.26;33.01
35878;BME280;21982;49.804;24.072;2024-01-30T12:40:41;98857.13;;;17.41;32.75
35878;BME280;21982;49.804;24.072;2024-01-30T12:43:06;99011.28;;;18.42;32.84
35878;BME280;21982;49.804;24.072;2024-01-30T12:45:32;99008.53;;;18.29;32.47
35878;BME280;21982;49.804;24.072;2024-01-30T12:47:58;98930.34;;;17.97;32.17
35878;BME280;21982;49.804;24.072;2024-01-30T12:50:24;99002.69;;;18.53;32.24
35878;BME280;21982;49.804;24.072;2024-01-30T12:52:49;98765.09;;;16.71;32.03
35878;BME280;21982;49.804;24.072;2024-01-30T12:55:15;98927.19;;;17.87;31.93
35878;BME280;21982;49.804;24.072;2024-01-30T12:57:40;98993.91;;;17.82;31.81
35878;BME280;21982;49.804;24.072;2024-01-30T13:00:08;98869.63;;;16.70;31.93
35878;BME280;21982;49.804;24.072;2024-01-30T13:02:34;98987.25;;;17.35;31.76
35878;BME280;21982;49.804;24.072;2024-01-30T13:05:02;98935.84;;;16.53;31.89
35878;BME280;21982;49.804;24.072;2024-01-30T13:07:29;98970.44;;;16.69;32.09
35878;BME280;21982;49.804;24.072;2024-01-30T13:09:54;98975.41;;;16.72;32.10
35878;BME280;21982;49.804;24.072;2024-01-30T13:12:23;98991.38;;;16.81;32.16
35878;BME280;21982;49.804;24.072;2024-01-30T13:14:48;98482.13;;;13.26;32.49